Terminal Aerodrome Forecast
Issued by NWS Austin/San Antonio, TX

Home | Current Version | Previous Version | Text Only | Print | Product List | Glossary On
Versions: 1 2 3 4 5 6 7 8 9 10 11 12 13 14 15 16 17
556
FTUS44 KEWX 270539
TAFDRT
TAF
KDRT 270539Z 2706/2806 10006KT P6SM SKC
     FM271100 09005KT P6SM BKN015
     FM271200 VRB03KT 5SM BR OVC004
     FM271500 02003KT P6SM OVC015
     FM271700 14005KT P6SM SCT030=

USA.gov is the U.S. government's official web portal to all federal, state and local government web resources and services.